Time;durP1;ratioP1;P1;durP2;ratioP2;P2;SDS_P1;SDS_P2;PMS_P1;PMS_P2;Temp;Humidity;BMP_temperature;BMP_pressure;BME280_temperature;BME280_humidity;BME280_pressure;Samples;Min_cycle;Max_cycle;Signal;HPM_P1;HPM_P2
2022/01/15 00:01:33;;;;;;;28.80;18.50;;;6.10;99.90;;;;;;5020498;28;20190;-76
2022/01/15 00:03:59;;;;;;;27.80;17.43;;;6.10;99.90;;;;;;5022966;28;20178;-76
2022/01/15 00:06:25;;;;;;;30.60;17.52;;;6.10;99.90;;;;;;5030915;28;20231;-76
2022/01/15 00:08:51;;;;;;;28.47;17.47;;;6.10;99.90;;;;;;5021814;28;20894;-76
2022/01/15 00:11:20;;;;;;;26.67;17.77;;;6.10;99.90;;;;;;5022485;28;20941;-76
2022/01/15 00:13:53;;;;;;;27.98;17.45;;;6.20;99.90;;;;;;5023707;28;20212;-76
2022/01/15 00:16:32;;;;;;;31.75;19.20;;;6.10;99.90;;;;;;5020690;28;20174;-76
2022/01/15 00:19:07;;;;;;;29.30;17.55;;;6.20;99.90;;;;;;5001429;28;20202;-76
2022/01/15 00:21:33;;;;;;;25.60;17.13;;;6.20;99.90;;;;;;5020159;28;20263;-76
2022/01/15 00:23:59;;;;;;;30.05;16.80;;;6.20;99.90;;;;;;5022501;28;20188;-76
2022/01/15 00:26:25;;;;;;;30.52;18.58;;;6.10;99.90;;;;;;5022704;28;20191;-76
2022/01/15 00:28:51;;;;;;;25.13;16.23;;;6.00;99.90;;;;;;5022664;28;20217;-76
2022/01/15 00:31:17;;;;;;;24.63;15.90;;;6.00;99.90;;;;;;5023116;28;20181;-76
2022/01/15 00:33:44;;;;;;;24.63;15.95;;;5.90;99.90;;;;;;5042675;28;20530;-76
2022/01/15 00:36:09;;;;;;;26.33;14.37;;;5.80;99.90;;;;;;5031604;28;20178;-76
2022/01/15 00:38:35;;;;;;;23.23;14.27;;;5.70;99.90;;;;;;5028490;28;20185;-76
2022/01/15 00:41:01;;;;;;;21.60;14.60;;;5.70;99.90;;;;;;5032237;28;20523;-76
2022/01/15 00:43:47;;;;;;;25.30;15.03;;;5.70;99.90;;;;;;5025417;28;20679;-75
2022/01/15 00:46:13;;;;;;;24.42;16.50;;;5.60;99.90;;;;;;5024298;28;20600;-75
2022/01/15 00:48:38;;;;;;;29.20;16.80;;;5.60;99.90;;;;;;5031847;28;20176;-75
2022/01/15 00:51:04;;;;;;;37.93;18.47;;;5.50;99.90;;;;;;5028931;28;20245;-75
2022/01/15 00:53:30;;;;;;;31.40;17.17;;;5.50;99.90;;;;;;5012055;28;20702;-74
2022/01/15 00:55:56;;;;;;;25.53;15.93;;;5.50;99.90;;;;;;5028265;28;20230;-75
2022/01/15 00:58:21;;;;;;;33.87;17.03;;;5.60;99.90;;;;;;5012066;28;20628;-75
2022/01/15 01:00:47;;;;;;;29.07;16.17;;;5.60;99.90;;;;;;5010970;28;20247;-75
2022/01/15 01:03:13;;;;;;;34.27;18.57;;;5.70;99.90;;;;;;5031772;28;20672;-75
2022/01/15 01:05:38;;;;;;;30.30;16.73;;;5.70;99.90;;;;;;5030411;28;20668;-75
2022/01/15 01:08:04;;;;;;;29.40;17.03;;;5.70;99.90;;;;;;5028727;28;20654;-75
2022/01/15 01:23:20;;;;;;;26.67;16.87;;;5.80;99.90;;;;;;5030107;28;20178;-75
2022/01/15 01:25:50;;;;;;;34.53;16.80;;;5.70;99.90;;;;;;5030075;28;20578;-75
2022/01/15 01:28:34;;;;;;;32.63;15.95;;;5.70;99.90;;;;;;5026850;28;20193;-75
2022/01/15 01:36:09;;;;;;;23.60;13.60;;;5.60;99.90;;;;;;5029157;28;20276;-75
2022/01/15 01:38:42;;;;;;;27.55;14.50;;;5.50;99.90;;;;;;5031371;28;20962;-75
2022/01/15 01:41:14;;;;;;;24.27;13.85;;;5.50;99.90;;;;;;5026971;28;20236;-75
2022/01/15 01:43:46;;;;;;;23.15;12.98;;;5.50;99.90;;;;;;4977923;28;20174;-75
2022/01/15 01:48:42;;;;;;;24.52;13.70;;;5.50;99.90;;;;;;5014195;28;20170;-75
2022/01/15 01:51:19;;;;;;;25.42;12.45;;;5.50;99.90;;;;;;5014265;28;20166;-75
2022/01/15 01:53:44;;;;;;;23.73;13.73;;;5.50;99.90;;;;;;5014300;28;20281;-75
2022/01/15 01:56:10;;;;;;;23.87;13.70;;;5.50;99.90;;;;;;5015446;28;20242;-75
2022/01/15 01:58:36;;;;;;;31.03;15.53;;;5.50;99.90;;;;;;5017255;28;20549;-75
2022/01/15 02:01:02;;;;;;;22.30;12.93;;;5.50;99.90;;;;;;5015327;28;20538;-75
2022/01/15 02:03:28;;;;;;;29.03;15.57;;;5.50;99.90;;;;;;5017464;28;20185;-75
2022/01/15 02:05:54;;;;;;;24.67;14.20;;;5.40;99.90;;;;;;5015964;28;20643;-75
2022/01/15 02:08:19;;;;;;;31.47;16.33;;;5.40;99.90;;;;;;5020398;28;20585;-75
2022/01/15 02:10:45;;;;;;;21.30;11.80;;;5.30;99.90;;;;;;5033820;28;20607;-75
2022/01/15 02:13:13;;;;;;;24.63;13.03;;;5.30;99.90;;;;;;5034963;28;20606;-75
2022/01/15 02:15:38;;;;;;;27.52;14.52;;;5.30;99.90;;;;;;5033804;28;20561;-75
2022/01/15 02:18:05;;;;;;;25.43;12.87;;;5.20;99.90;;;;;;5033843;28;20181;-75
2022/01/15 02:25:59;;;;;;;18.42;11.20;;;5.00;99.90;;;;;;5014013;28;20177;-75
2022/01/15 02:28:31;;;;;;;27.30;14.05;;;5.00;99.90;;;;;;5015289;28;20260;-75
2022/01/15 02:31:06;;;;;;;19.55;11.55;;;5.00;99.90;;;;;;5016174;28;20171;-75
2022/01/15 02:33:32;;;;;;;26.40;15.10;;;5.00;99.90;;;;;;5033933;28;20198;-75
2022/01/15 02:35:58;;;;;;;20.63;12.30;;;4.90;99.90;;;;;;5014312;28;20312;-75
2022/01/15 02:38:25;;;;;;;21.90;12.02;;;4.90;99.90;;;;;;4998335;28;20581;-75
2022/01/15 02:40:52;;;;;;;18.55;10.77;;;4.90;99.90;;;;;;5030012;28;20190;-75
2022/01/15 02:43:27;;;;;;;16.65;10.00;;;4.90;99.90;;;;;;5015036;28;20610;-75
2022/01/15 02:45:57;;;;;;;17.77;10.80;;;4.80;99.90;;;;;;5014748;28;20288;-75
2022/01/15 02:48:28;;;;;;;18.67;10.68;;;4.80;99.90;;;;;;5013838;28;20178;-75
2022/01/15 02:50:56;;;;;;;19.38;11.23;;;4.80;99.90;;;;;;5014899;28;20185;-75
2022/01/15 02:53:22;;;;;;;20.27;10.60;;;4.70;99.90;;;;;;5015539;28;20202;-75
2022/01/15 02:55:50;;;;;;;16.00;8.50;;;4.70;99.90;;;;;;5023176;28;20182;-75
2022/01/15 02:58:17;;;;;;;15.75;9.38;;;4.60;99.90;;;;;;5014986;28;20174;-75
2022/01/15 03:00:44;;;;;;;14.52;8.25;;;4.60;99.90;;;;;;5016719;28;20201;-75
2022/01/15 03:03:09;;;;;;;17.92;10.10;;;4.60;99.90;;;;;;5048734;28;20238;-74
2022/01/15 03:05:35;;;;;;;18.80;10.97;;;4.70;99.90;;;;;;5034839;28;20213;-76
2022/01/15 03:08:01;;;;;;;24.07;11.27;;;4.60;99.90;;;;;;5028544;28;20578;-76
2022/01/15 03:10:27;;;;;;;18.50;10.10;;;4.60;99.90;;;;;;5033081;28;20265;-75
2022/01/15 03:12:54;;;;;;;14.40;8.63;;;4.60;99.90;;;;;;5035421;28;20604;-76
2022/01/15 03:15:20;;;;;;;18.15;9.00;;;4.60;99.90;;;;;;5029880;28;20178;-75
2022/01/15 03:17:50;;;;;;;14.97;8.73;;;4.70;99.90;;;;;;5019053;28;20174;-74
2022/01/15 03:20:18;;;;;;;16.13;10.23;;;4.70;99.90;;;;;;5013726;28;20615;-74
2022/01/15 03:22:44;;;;;;;18.70;10.38;;;4.60;99.90;;;;;;5017384;28;20239;-75
2022/01/15 03:25:11;;;;;;;18.63;10.33;;;4.60;99.90;;;;;;5013450;28;20190;-75
2022/01/15 03:27:37;;;;;;;18.83;10.10;;;4.60;99.90;;;;;;5030119;28;20593;-74
2022/01/15 03:30:08;;;;;;;16.10;8.85;;;4.60;99.90;;;;;;5014092;28;20233;-74
2022/01/15 03:32:34;;;;;;;13.73;8.90;;;4.60;99.90;;;;;;5030088;28;20174;-74
2022/01/15 03:35:00;;;;;;;13.73;7.82;;;4.60;99.90;;;;;;5013955;28;20226;-74
2022/01/15 03:37:26;;;;;;;17.52;9.88;;;4.60;99.90;;;;;;5013695;28;20170;-74
2022/01/15 03:39:52;;;;;;;18.17;10.20;;;4.70;99.90;;;;;;5013728;28;20182;-75
2022/01/15 03:42:18;;;;;;;15.67;8.90;;;4.70;99.90;;;;;;5021657;28;20945;-75
2022/01/15 03:44:46;;;;;;;14.57;8.50;;;4.70;99.90;;;;;;5013278;28;20183;-74
2022/01/15 03:47:13;;;;;;;15.05;8.15;;;4.70;99.90;;;;;;5026458;28;20948;-74
2022/01/15 03:49:39;;;;;;;12.93;8.75;;;4.60;99.90;;;;;;5039685;28;20216;-74
2022/01/15 03:52:06;;;;;;;17.35;10.20;;;4.70;99.90;;;;;;5033465;28;20169;-74
2022/01/15 03:54:32;;;;;;;19.00;10.07;;;4.70;99.90;;;;;;5017077;28;20209;-75
2022/01/15 03:56:58;;;;;;;19.63;11.40;;;4.60;99.90;;;;;;5013156;28;20519;-76
2022/01/15 03:59:24;;;;;;;18.00;10.27;;;4.60;99.90;;;;;;4995549;28;20623;-75
2022/01/15 04:01:50;;;;;;;19.48;9.73;;;4.60;99.90;;;;;;5013427;28;20166;-75
2022/01/15 04:04:17;;;;;;;16.58;10.68;;;4.60;99.90;;;;;;5012568;28;20167;-76
2022/01/15 04:06:43;;;;;;;12.45;8.88;;;4.60;99.90;;;;;;5012366;28;20174;-75
2022/01/15 04:09:10;;;;;;;15.63;9.93;;;4.60;99.90;;;;;;5012190;28;20196;-76
2022/01/15 04:11:35;;;;;;;19.65;11.65;;;4.70;99.90;;;;;;5011064;28;20174;-76
2022/01/15 04:14:02;;;;;;;17.17;10.83;;;4.70;99.90;;;;;;5028181;28;20217;-75
2022/01/15 04:16:29;;;;;;;18.20;10.65;;;4.70;99.90;;;;;;5030865;28;20181;-75
2022/01/15 04:18:59;;;;;;;15.75;9.75;;;4.60;99.90;;;;;;5014926;28;20662;-75
2022/01/15 04:21:26;;;;;;;10.60;8.80;;;4.60;99.90;;;;;;5018799;28;20644;-75
2022/01/15 04:23:52;;;;;;;14.88;10.95;;;4.60;99.90;;;;;;5012848;28;20670;-75
2022/01/15 04:26:23;;;;;;;17.27;12.70;;;4.50;99.90;;;;;;5021277;28;20166;-75
2022/01/15 04:28:49;;;;;;;13.77;9.80;;;4.40;99.90;;;;;;5029420;28;20632;-74
2022/01/15 04:31:16;;;;;;;10.23;8.32;;;4.40;99.90;;;;;;5032221;28;20256;-74
2022/01/15 04:33:42;;;;;;;12.65;7.18;;;4.40;99.90;;;;;;5032458;28;20573;-75
2022/01/15 04:36:09;;;;;;;14.70;10.93;;;4.30;99.90;;;;;;5032447;28;20169;-75
2022/01/15 04:38:37;;;;;;;13.13;8.30;;;4.30;99.90;;;;;;5025582;28;20178;-75
2022/01/15 04:41:07;;;;;;;14.20;9.52;;;4.30;99.90;;;;;;5020422;28;20193;-75
2022/01/15 04:43:34;;;;;;;12.82;8.13;;;4.30;99.90;;;;;;4994865;28;20272;-76
2022/01/15 04:46:00;;;;;;;10.65;8.18;;;4.30;99.90;;;;;;5012601;28;20506;-75
2022/01/15 04:48:27;;;;;;;11.18;8.63;;;4.30;99.90;;;;;;5011224;28;20181;-75
2022/01/15 04:50:53;;;;;;;13.98;9.50;;;4.40;99.90;;;;;;5012231;28;20184;-76
2022/01/15 04:53:19;;;;;;;12.80;10.43;;;4.40;99.90;;;;;;5011173;28;20620;-76
2022/01/15 04:55:47;;;;;;;13.07;10.23;;;4.40;99.90;;;;;;5012375;28;20171;-76
2022/01/15 04:58:13;;;;;;;16.35;10.43;;;4.40;99.90;;;;;;5019582;28;20616;-75
2022/01/15 05:00:39;;;;;;;11.35;7.85;;;4.30;99.90;;;;;;5012384;28;20225;-75
2022/01/15 05:03:05;;;;;;;12.87;9.40;;;4.30;99.90;;;;;;5012809;28;20201;-75
2022/01/15 05:05:31;;;;;;;10.73;7.87;;;4.20;99.90;;;;;;5011240;28;20174;-76
2022/01/15 05:07:57;;;;;;;7.45;6.55;;;4.20;99.90;;;;;;4995948;28;20182;-76
2022/01/15 05:10:27;;;;;;;7.00;6.03;;;4.30;99.90;;;;;;5025379;28;20193;-75
2022/01/15 05:12:56;;;;;;;10.25;8.05;;;4.30;99.90;;;;;;5030409;28;20580;-75
2022/01/15 05:15:24;;;;;;;12.13;8.68;;;4.30;99.90;;;;;;5031633;28;20178;-75
2022/01/15 05:17:51;;;;;;;10.82;8.00;;;4.20;99.90;;;;;;5031677;28;20174;-75
2022/01/15 05:20:18;;;;;;;9.30;6.80;;;4.10;99.90;;;;;;5030099;28;20601;-75
2022/01/15 05:22:46;;;;;;;13.73;9.00;;;4.10;99.90;;;;;;5030067;28;20189;-75
2022/01/15 05:25:16;;;;;;;12.40;8.00;;;4.10;99.90;;;;;;5030334;28;20526;-75
2022/01/15 05:27:43;;;;;;;14.23;9.43;;;4.00;99.90;;;;;;5022039;28;20181;-75
2022/01/15 05:30:11;;;;;;;10.30;8.30;;;3.90;99.90;;;;;;5031257;28;20201;-75
2022/01/15 05:32:37;;;;;;;13.90;9.98;;;3.90;99.90;;;;;;5031623;28;20285;-75
2022/01/15 05:35:03;;;;;;;13.37;10.17;;;3.80;99.90;;;;;;5030740;28;20201;-75
2022/01/15 05:37:29;;;;;;;11.98;9.82;;;3.80;99.90;;;;;;5024784;28;20573;-75
2022/01/15 05:39:55;;;;;;;9.17;8.03;;;3.70;99.90;;;;;;5016429;28;20198;-75
2022/01/15 05:42:21;;;;;;;12.67;8.10;;;3.80;99.90;;;;;;5011975;28;20193;-76
2022/01/15 05:44:46;;;;;;;9.90;7.60;;;3.80;99.90;;;;;;5026979;28;20561;-75
2022/01/15 05:47:12;;;;;;;12.83;9.33;;;3.80;99.90;;;;;;5010351;28;20178;-76
2022/01/15 05:49:38;;;;;;;9.97;8.43;;;3.80;99.90;;;;;;5025447;28;20264;-75
2022/01/15 05:52:05;;;;;;;13.85;10.10;;;3.80;99.90;;;;;;5027363;28;20182;-75
2022/01/15 05:54:30;;;;;;;9.90;7.95;;;3.80;99.90;;;;;;5011818;28;20198;-75
2022/01/15 05:56:56;;;;;;;9.60;7.77;;;3.80;99.90;;;;;;5011891;28;20171;-75
2022/01/15 05:59:22;;;;;;;13.40;9.37;;;3.90;99.90;;;;;;5026856;28;20193;-75
2022/01/15 06:01:48;;;;;;;9.63;7.87;;;3.90;99.90;;;;;;5011519;28;21097;-75
2022/01/15 06:04:14;;;;;;;8.37;6.90;;;4.00;99.90;;;;;;5011470;28;20581;-75
2022/01/15 06:06:39;;;;;;;9.50;8.10;;;4.10;99.90;;;;;;5018090;28;20181;-75
2022/01/15 06:09:05;;;;;;;12.87;9.40;;;4.10;99.90;;;;;;5021983;28;21168;-75
2022/01/15 06:11:34;;;;;;;13.47;8.33;;;4.00;99.90;;;;;;5031292;28;20197;-75
2022/01/15 06:14:00;;;;;;;12.45;9.30;;;4.10;99.90;;;;;;5029929;28;20619;-75
2022/01/15 06:16:27;;;;;;;13.90;8.30;;;4.10;99.90;;;;;;5021334;28;20200;-75
2022/01/15 06:18:53;;;;;;;12.75;8.20;;;4.10;99.90;;;;;;5011063;28;20190;-75
2022/01/15 06:21:19;;;;;;;10.55;8.05;;;4.10;99.90;;;;;;5011026;28;20170;-75
2022/01/15 06:23:45;;;;;;;10.65;8.52;;;4.10;99.90;;;;;;5026587;28;20216;-75
2022/01/15 06:26:11;;;;;;;12.07;7.90;;;4.10;99.90;;;;;;5010097;28;20265;-75
2022/01/15 06:28:37;;;;;;;11.98;9.07;;;4.10;99.90;;;;;;5010950;28;20589;-75
2022/01/15 06:31:03;;;;;;;11.70;7.70;;;4.10;99.90;;;;;;5011168;28;20194;-75
2022/01/15 06:33:28;;;;;;;11.60;8.30;;;4.10;99.90;;;;;;5025958;28;20196;-75
2022/01/15 06:35:54;;;;;;;13.73;7.97;;;4.10;99.90;;;;;;5033288;28;20576;-75
2022/01/15 06:38:20;;;;;;;13.83;11.17;;;4.10;99.90;;;;;;5033352;28;20181;-75
2022/01/15 06:40:45;;;;;;;12.00;7.87;;;4.00;99.90;;;;;;5017624;28;20281;-75
2022/01/15 06:43:11;;;;;;;9.50;7.70;;;4.10;99.90;;;;;;5014570;28;20658;-75
2022/01/15 06:45:37;;;;;;;10.57;7.50;;;4.10;99.90;;;;;;5020379;28;20182;-75
2022/01/15 06:48:03;;;;;;;8.50;6.50;;;4.10;99.90;;;;;;5034238;28;20582;-75
2022/01/15 06:50:30;;;;;;;12.23;8.85;;;4.10;99.90;;;;;;5033974;28;21182;-74
2022/01/15 06:52:55;;;;;;;10.25;8.05;;;4.10;99.90;;;;;;5034439;28;20256;-75
2022/01/15 06:55:21;;;;;;;9.83;7.37;;;4.10;99.90;;;;;;5039204;28;20233;-75
2022/01/15 06:57:47;;;;;;;8.20;7.18;;;4.20;99.90;;;;;;5034210;28;20223;-75
2022/01/15 07:00:14;;;;;;;11.27;8.73;;;4.20;99.90;;;;;;5033943;28;20189;-75
2022/01/15 07:02:41;;;;;;;8.05;7.22;;;4.20;99.90;;;;;;5032745;28;20577;-75
2022/01/15 07:05:08;;;;;;;10.48;8.52;;;4.20;99.90;;;;;;5032684;28;20178;-75
2022/01/15 07:07:35;;;;;;;10.88;7.80;;;4.20;99.90;;;;;;5027326;28;20210;-75
2022/01/15 07:10:01;;;;;;;9.15;8.23;;;4.20;99.90;;;;;;5026160;28;20197;-75
2022/01/15 07:12:27;;;;;;;8.88;7.05;;;4.20;99.90;;;;;;5054173;28;20185;-76
2022/01/15 07:14:53;;;;;;;8.80;7.38;;;4.20;99.90;;;;;;5052817;28;20556;-75
2022/01/15 07:17:19;;;;;;;9.63;8.00;;;4.20;99.90;;;;;;5054243;28;20173;-75
2022/01/15 07:19:45;;;;;;;8.20;6.47;;;4.20;99.90;;;;;;5053941;28;20652;-74
2022/01/15 07:22:10;;;;;;;6.53;5.80;;;4.20;99.90;;;;;;5053551;28;21394;-74
2022/01/15 07:24:36;;;;;;;7.87;6.77;;;4.30;99.90;;;;;;5053474;28;20173;-74
2022/01/15 07:27:03;;;;;;;9.07;7.20;;;4.20;99.90;;;;;;5053834;28;20161;-74
2022/01/15 07:29:30;;;;;;;7.88;6.82;;;4.30;99.90;;;;;;5053743;28;20630;-74
2022/01/15 07:31:56;;;;;;;6.70;5.95;;;4.30;99.90;;;;;;5046901;28;20185;-74
2022/01/15 07:34:22;;;;;;;7.37;6.67;;;4.30;99.90;;;;;;5019126;28;20208;-74
2022/01/15 07:36:52;;;;;;;6.97;6.10;;;4.40;99.90;;;;;;5029031;28;20946;-75
2022/01/15 07:39:18;;;;;;;8.15;7.35;;;4.40;99.90;;;;;;5012407;28;20183;-74
2022/01/15 07:41:44;;;;;;;8.23;7.28;;;4.40;99.90;;;;;;5012337;28;20632;-74
2022/01/15 07:44:10;;;;;;;9.00;7.30;;;4.40;99.90;;;;;;5012243;28;20194;-75
2022/01/15 07:46:36;;;;;;;9.70;7.47;;;4.40;99.90;;;;;;5012109;28;20577;-75
2022/01/15 07:49:02;;;;;;;7.17;5.93;;;4.40;99.90;;;;;;5025124;28;20614;-75
2022/01/15 07:51:28;;;;;;;6.32;5.68;;;4.40;99.90;;;;;;5045696;28;20731;-75
2022/01/15 07:53:54;;;;;;;6.97;6.27;;;4.40;99.90;;;;;;5025136;28;20357;-74
2022/01/15 07:56:19;;;;;;;9.73;6.73;;;4.50;99.90;;;;;;5031652;28;21143;-74
2022/01/15 07:58:46;;;;;;;5.72;5.13;;;4.50;99.90;;;;;;5031461;28;20261;-74
2022/01/15 08:01:12;;;;;;;5.38;4.88;;;4.50;99.90;;;;;;5032939;28;20158;-75
2022/01/15 08:03:37;;;;;;;9.03;7.10;;;4.60;99.90;;;;;;5031721;28;20173;-75
2022/01/15 08:06:03;;;;;;;8.87;6.80;;;4.60;99.90;;;;;;5032951;28;20604;-74
2022/01/15 08:08:29;;;;;;;7.97;6.27;;;4.60;99.90;;;;;;5039334;28;20177;-74
2022/01/15 08:10:54;;;;;;;8.87;7.20;;;4.60;99.90;;;;;;5035085;28;20256;-75
2022/01/15 08:13:20;;;;;;;7.40;6.60;;;4.70;99.90;;;;;;5052572;28;20538;-75
2022/01/15 08:15:46;;;;;;;8.00;7.03;;;4.70;99.90;;;;;;5052675;28;20222;-75
2022/01/15 08:18:12;;;;;;;10.00;8.30;;;4.70;99.90;;;;;;5052639;28;20166;-75
2022/01/15 08:20:38;;;;;;;8.83;7.87;;;4.70;99.90;;;;;;5051147;28;20252;-74
2022/01/15 08:23:03;;;;;;;9.37;7.40;;;4.70;99.90;;;;;;5051226;28;20196;-75
2022/01/15 08:25:30;;;;;;;9.93;8.17;;;4.70;99.90;;;;;;5051327;28;20165;-74
2022/01/15 08:27:56;;;;;;;8.98;7.55;;;4.80;99.90;;;;;;5052197;28;20989;-75
2022/01/15 08:30:22;;;;;;;8.93;7.07;;;4.70;99.90;;;;;;5051151;28;20196;-75
2022/01/15 08:32:48;;;;;;;9.05;7.72;;;4.80;99.90;;;;;;5051012;28;20634;-74
2022/01/15 08:35:14;;;;;;;8.70;7.47;;;4.80;99.90;;;;;;5051064;28;20200;-75
2022/01/15 08:37:40;;;;;;;8.17;7.23;;;4.80;99.90;;;;;;5052242;28;20168;-76
2022/01/15 08:40:12;;;;;;;7.73;6.93;;;4.80;99.90;;;;;;5050810;28;20184;-76
2022/01/15 08:42:38;;;;;;;7.28;5.75;;;4.80;99.90;;;;;;5051147;28;21073;-76
2022/01/15 08:45:07;;;;;;;9.15;8.02;;;4.90;99.90;;;;;;5054292;28;20795;-76
2022/01/15 08:47:33;;;;;;;7.97;6.95;;;4.80;99.90;;;;;;5050967;28;20232;-76
2022/01/15 08:49:58;;;;;;;13.43;9.27;;;4.90;99.90;;;;;;5050804;28;20228;-76
2022/01/15 08:52:24;;;;;;;7.97;7.20;;;4.90;99.90;;;;;;5050993;28;20264;-77
2022/01/15 08:54:50;;;;;;;8.80;7.10;;;4.90;99.90;;;;;;5051796;28;20626;-76
2022/01/15 08:57:16;;;;;;;8.33;6.47;;;4.90;99.90;;;;;;5051726;28;20563;-74
2022/01/15 08:59:42;;;;;;;7.50;6.30;;;5.00;99.90;;;;;;5050608;28;20545;-76
2022/01/15 09:02:08;;;;;;;6.43;5.78;;;5.00;99.90;;;;;;5050589;28;20165;-76
2022/01/15 09:04:34;;;;;;;7.85;6.53;;;5.00;99.90;;;;;;5051840;28;20169;-77
2022/01/15 09:07:00;;;;;;;8.83;6.83;;;5.10;99.90;;;;;;5033852;28;20176;-77
2022/01/15 09:09:26;;;;;;;7.72;6.35;;;5.10;99.90;;;;;;5050423;28;20196;-77
2022/01/15 09:11:52;;;;;;;7.70;6.00;;;5.10;99.90;;;;;;5051768;28;20168;-76
2022/01/15 09:14:18;;;;;;;7.17;5.67;;;5.10;99.90;;;;;;5050372;28;20192;-77
2022/01/15 09:16:44;;;;;;;7.80;5.97;;;5.10;99.90;;;;;;5050461;28;20165;-78
2022/01/15 09:19:10;;;;;;;7.33;6.30;;;5.20;99.90;;;;;;5050564;28;20196;-78
2022/01/15 09:21:36;;;;;;;7.13;6.43;;;5.20;99.90;;;;;;5051239;28;20628;-78
2022/01/15 09:24:02;;;;;;;7.23;6.40;;;5.20;99.90;;;;;;5055194;28;20564;-76
2022/01/15 09:31:57;;;;;;;10.05;8.18;;;5.20;99.90;;;;;;5051702;28;20169;-78
2022/01/15 09:34:23;;;;;;;9.73;7.37;;;5.10;99.90;;;;;;5050149;28;20250;-78
2022/01/15 09:36:50;;;;;;;9.32;7.85;;;5.10;99.90;;;;;;5033451;28;20611;-77
2022/01/15 09:39:18;;;;;;;8.20;6.90;;;5.00;99.90;;;;;;5038815;28;20220;-77
2022/01/15 09:41:48;;;;;;;8.32;7.40;;;5.00;99.90;;;;;;5031343;28;20199;-77
2022/01/15 09:44:16;;;;;;;7.82;6.78;;;5.10;99.90;;;;;;5031621;28;20231;-77
2022/01/15 09:46:44;;;;;;;10.75;8.30;;;5.00;99.90;;;;;;5013572;28;20232;-77
2022/01/15 09:49:10;;;;;;;10.20;8.40;;;5.00;99.90;;;;;;5022947;28;20609;-77
2022/01/15 09:51:36;;;;;;;9.07;6.40;;;5.10;99.90;;;;;;5022798;28;20600;-77
2022/01/15 09:54:02;;;;;;;10.27;8.90;;;5.10;99.90;;;;;;5019166;28;20239;-78
2022/01/15 10:00:54;;;;;;;7.30;5.63;;;5.10;99.90;;;;;;4984712;28;20199;-77
2022/01/15 10:03:20;;;;;;;10.90;6.00;;;5.20;99.90;;;;;;5016172;28;20537;-78
2022/01/15 10:05:47;;;;;;;7.33;6.27;;;5.30;99.90;;;;;;5031146;28;20162;-78
2022/01/15 10:08:19;;;;;;;6.88;6.18;;;5.30;99.90;;;;;;5012091;28;20166;-78
2022/01/15 10:10:51;;;;;;;8.30;6.82;;;5.30;99.90;;;;;;5021856;28;20237;-77
2022/01/15 10:13:23;;;;;;;6.65;5.25;;;5.40;99.90;;;;;;5005247;28;20190;-77
2022/01/15 10:16:09;;;;;;;7.80;6.88;;;5.50;99.90;;;;;;5024671;28;20653;-77
2022/01/15 10:18:43;;;;;;;6.90;5.72;;;5.60;99.90;;;;;;4987002;28;20190;-77
2022/01/15 10:21:13;;;;;;;7.70;5.65;;;5.60;99.90;;;;;;5035263;28;20185;-78
2022/01/15 10:23:56;;;;;;;7.00;6.30;;;5.70;99.90;;;;;;5027694;28;20265;-78
2022/01/15 10:26:27;;;;;;;5.07;4.60;;;5.70;99.90;;;;;;5016479;28;20174;-79
2022/01/15 10:29:06;;;;;;;8.93;7.90;;;5.70;99.90;;;;;;5001900;28;20222;-78
2022/01/15 10:31:40;;;;;;;9.80;7.90;;;5.80;99.90;;;;;;5033765;28;20188;-78
2022/01/15 10:34:26;;;;;;;7.03;6.15;;;5.70;99.90;;;;;;5036364;28;20251;-74
2022/01/15 10:36:52;;;;;;;8.23;7.30;;;5.60;99.90;;;;;;5036641;28;20284;-77
2022/01/15 10:39:20;;;;;;;5.45;4.40;;;5.60;99.90;;;;;;5013650;28;20187;-77
2022/01/15 10:41:48;;;;;;;6.05;5.22;;;5.70;99.90;;;;;;5013674;28;20584;-74
2022/01/15 10:44:35;;;;;;;7.45;5.57;;;5.80;99.90;;;;;;5028104;28;20181;-77
2022/01/15 10:47:13;;;;;;;7.88;5.50;;;5.80;99.90;;;;;;5021909;28;20185;-77
2022/01/15 10:49:40;;;;;;;7.18;5.57;;;5.90;99.90;;;;;;5014857;28;20268;-77
2022/01/15 10:52:09;;;;;;;7.53;5.45;;;5.90;99.90;;;;;;5024019;28;20182;-77
2022/01/15 10:54:48;;;;;;;10.57;7.50;;;5.90;99.90;;;;;;5014554;28;20202;-77
2022/01/15 10:57:14;;;;;;;8.82;6.60;;;5.80;99.90;;;;;;5014656;28;20185;-77
2022/01/15 11:00:05;;;;;;;8.68;6.32;;;5.80;99.90;;;;;;5037772;28;20186;-77
2022/01/15 11:02:31;;;;;;;7.60;6.80;;;5.80;99.90;;;;;;5035694;28;20177;-77
2022/01/15 11:04:57;;;;;;;8.63;7.70;;;5.80;99.90;;;;;;5038926;28;20192;-78
2022/01/15 11:07:23;;;;;;;8.33;6.00;;;5.80;99.90;;;;;;5044050;28;20894;-77
2022/01/15 11:09:53;;;;;;;10.05;7.03;;;5.80;99.90;;;;;;5010356;28;20679;-77
2022/01/15 11:12:25;;;;;;;8.73;6.15;;;5.70;99.90;;;;;;5029058;28;20197;-78
2022/01/15 11:14:51;;;;;;;7.38;5.35;;;5.70;99.90;;;;;;5020632;28;20570;-79
2022/01/15 11:17:17;;;;;;;7.20;6.30;;;5.70;99.90;;;;;;5016853;28;20186;-77
2022/01/15 11:19:45;;;;;;;9.00;6.27;;;5.70;99.90;;;;;;5014957;28;20671;-77
2022/01/15 11:22:17;;;;;;;6.60;5.03;;;5.80;99.90;;;;;;5012997;28;20945;-74
2022/01/15 11:24:44;;;;;;;9.98;6.28;;;5.90;99.90;;;;;;5022612;28;20245;-79
2022/01/15 11:27:11;;;;;;;9.55;6.13;;;5.90;99.90;;;;;;5026156;28;20216;-78
2022/01/15 11:29:41;;;;;;;6.97;5.83;;;6.00;99.90;;;;;;5024993;28;20245;-74
2022/01/15 11:32:09;;;;;;;7.80;6.60;;;6.00;99.90;;;;;;5015324;28;20623;-76
2022/01/15 11:34:35;;;;;;;6.85;5.45;;;6.00;99.90;;;;;;5017542;28;20241;-79
2022/01/15 11:37:15;;;;;;;6.67;5.03;;;6.00;99.90;;;;;;5012771;28;20647;-78
2022/01/15 11:39:45;;;;;;;8.95;4.95;;;6.00;99.90;;;;;;5013951;28;20190;-78
2022/01/15 11:42:27;;;;;;;6.43;5.53;;;6.00;99.90;;;;;;5017466;28;20178;-77
2022/01/15 11:44:53;;;;;;;7.97;6.07;;;6.10;99.90;;;;;;5019098;28;20182;-75
2022/01/15 11:47:22;;;;;;;10.05;7.70;;;6.20;99.90;;;;;;5028385;28;20271;-79
2022/01/15 11:49:52;;;;;;;6.30;5.70;;;6.20;99.90;;;;;;5040014;28;20261;-77
2022/01/15 11:52:19;;;;;;;10.43;8.00;;;6.20;99.90;;;;;;5030611;28;20543;-78
2022/01/15 11:54:51;;;;;;;8.35;6.80;;;6.10;99.90;;;;;;5030151;28;20217;-77
2022/01/15 11:57:33;;;;;;;8.70;6.28;;;6.10;99.90;;;;;;5029444;28;20205;-78
2022/01/15 12:00:27;;;;;;;7.13;6.32;;;6.10;99.90;;;;;;5019359;28;20281;-77
2022/01/15 12:03:01;;;;;;;5.60;5.00;;;6.10;99.90;;;;;;5022385;28;20251;-77
2022/01/15 12:05:30;;;;;;;6.28;5.10;;;6.20;99.90;;;;;;5033762;28;20184;-77
2022/01/15 12:08:19;;;;;;;7.00;6.15;;;6.20;99.90;;;;;;5035971;28;20264;-77
2022/01/15 12:10:47;;;;;;;7.00;5.75;;;6.30;99.90;;;;;;5039876;28;20215;-77
2022/01/15 12:13:20;;;;;;;5.70;5.20;;;6.30;99.90;;;;;;5041889;28;20166;-77
2022/01/15 12:16:12;;;;;;;7.13;6.28;;;6.30;99.90;;;;;;5033412;28;20174;-77
2022/01/15 12:18:49;;;;;;;6.97;5.78;;;6.30;99.90;;;;;;5026846;28;20178;-75
2022/01/15 12:21:42;;;;;;;6.85;5.90;;;6.30;99.90;;;;;;5012097;28;20172;-75
2022/01/15 12:24:33;;;;;;;8.10;7.30;;;6.20;99.90;;;;;;5032459;28;20264;-75
2022/01/15 12:27:03;;;;;;;7.20;6.40;;;6.30;99.90;;;;;;5032873;28;20170;-76
2022/01/15 12:29:29;;;;;;;7.30;6.60;;;6.30;99.90;;;;;;5012191;28;20214;-75
2022/01/15 12:31:55;;;;;;;10.75;7.95;;;6.30;99.90;;;;;;4994627;28;20221;-75
2022/01/15 12:34:28;;;;;;;9.23;7.80;;;6.20;99.90;;;;;;5011310;28;20222;-74
2022/01/15 12:36:54;;;;;;;8.70;6.90;;;6.10;99.90;;;;;;5022004;28;20174;-75
2022/01/15 12:39:38;;;;;;;8.25;6.95;;;6.10;99.90;;;;;;5032176;28;20181;-75
2022/01/15 12:42:06;;;;;;;5.57;5.07;;;6.10;99.90;;;;;;5031113;28;20253;-75
2022/01/15 12:44:46;;;;;;;6.15;5.55;;;6.10;99.90;;;;;;5016704;28;20175;-75
2022/01/15 12:47:13;;;;;;;7.60;5.50;;;6.20;99.90;;;;;;5015706;28;20200;-74
2022/01/15 12:49:47;;;;;;;7.68;6.15;;;6.20;99.90;;;;;;5031531;28;20215;-74
2022/01/15 12:52:19;;;;;;;9.00;8.10;;;6.20;99.90;;;;;;5014307;28;20524;-74
2022/01/15 12:55:00;;;;;;;10.25;9.00;;;6.20;99.90;;;;;;5030314;28;20205;-74
2022/01/15 12:57:46;;;;;;;10.73;7.50;;;6.20;99.90;;;;;;5030374;28;20228;-74
2022/01/15 13:00:12;;;;;;;7.97;6.80;;;6.20;99.90;;;;;;5031664;28;20538;-75
2022/01/15 13:02:38;;;;;;;8.70;5.97;;;6.20;99.90;;;;;;5031991;28;20165;-74
2022/01/15 13:05:04;;;;;;;6.87;6.20;;;6.20;99.90;;;;;;5016450;28;20177;-74
2022/01/15 13:07:50;;;;;;;6.25;5.65;;;6.20;99.90;;;;;;5016375;28;20179;-75
2022/01/15 13:10:29;;;;;;;7.47;6.68;;;6.20;99.90;;;;;;5027258;28;20194;-75
2022/01/15 13:12:55;;;;;;;7.10;6.40;;;6.30;99.90;;;;;;5011979;28;20592;-75
2022/01/15 13:15:22;;;;;;;4.78;4.28;;;6.30;99.90;;;;;;5027209;28;20285;-75
2022/01/15 13:17:48;;;;;;;5.63;5.13;;;6.30;99.90;;;;;;5011991;28;20251;-75
2022/01/15 13:20:29;;;;;;;6.10;5.10;;;6.30;99.90;;;;;;5011744;28;20269;-75
2022/01/15 13:22:56;;;;;;;4.85;4.35;;;6.40;99.90;;;;;;5011844;28;20179;-75
2022/01/15 13:25:23;;;;;;;5.32;4.82;;;6.40;99.90;;;;;;5011679;28;20178;-75
2022/01/15 13:27:49;;;;;;;7.30;5.30;;;6.50;99.90;;;;;;5020562;28;20174;-75
2022/01/15 13:30:15;;;;;;;8.85;7.07;;;6.50;99.90;;;;;;5031262;28;20205;-75